Ride Results

Cobark Endurance Ride (09-08-2014)
Ride distance: 80.0 km

Outcomes - Cobark Endurance Ride (09-08-2014)
Division No. of Entries Retired / DNE Completed Withdrawn Ineligible V/O Percentage Completed
HW 17 - 14 1 - 2 82.35%
MW 26 - 22 3 - 1 84.62%
LW 8 - 4 2 - 2 50.00%
JN 6 - 5 1 - - 83.33%
Totals 57 - 45 7 - 5 78.95%
Results - Cobark Endurance Ride (09-08-2014)
No. Rider Horse Place Time Leg Speeds Total
Km/Hr
H/R bpm
Heavyweight
6 Charles Gauci Charleville Lady 1 5:57:00 14.4, 12.5 13.45 39, 42, 60 (Avg:51)
23 Gary Pevy Halimas Esdikarn 2 (BC) 6:20:00 14.1, 11.4 12.63 35, 41, 42 (Avg:41)
45 Roy Barsby Rafyke 3 6:42:00 12.8, 11.1 11.94 35, 33, 41 (Avg:37)
25 Nigel Colefax Inshallah Echo's Flight 4 7:15:00 12.9, 9.5 11.03 40, 39, 45 (Avg:42)
27 Jack Johnson Sharahd Narang 5 7:26:00 11.9, 9.7 10.76 36, 34, 45 (Avg:39)
26 Scott Peters Sharahd Lateefa 5 7:26:00 11.9, 9.7 10.76 36, 40, 49 (Avg:44)
1 Steve Broadbent Glendhu Moonshine 7 7:28:00 12.5, 9.3 10.71 40, 42, 45 (Avg:43)
15 Keith Sumpner Fonda 8 7:33:00 12.5, 9.1 10.60 33, 46, 54 (Avg:50)
43 Phil Coleman Rainbows Reach Snowfyre 9 9:01:00 9.4, 8.3 8.87 40, 44, 49 (Avg:46)
55 Alan Mackinder Jezabelle Sweet Dreams 10 9:15:00 9.3, 8.0 8.65 32, 42, 43 (Avg:42)
21 Marita Rifai Tianna 11 9:27:00 9.7, 7.4 8.47 34, 40, 55 (Avg:47)
44 Rod Mitchell Aloha Tribal Warrior 12 9:29:00 9.2, 7.7 8.44 36, 43, 56 (Avg:49)
33 Allan Caslick A'Landell Soul 13 9:34:00 8.6, 8.0 8.36 29, 35, 41 (Avg:38)
12 Greg Moore Parkview Armageddon 14 9:58:00 9.7, 6.7 8.03 34, 45, 60 (Avg:52)
50 Chris Geddes Magic Glenn Lumiah Lame L2 0:00:00 11.1, 8.4 - 31, 47, 55 (Avg:51)
36 Gavin Peacock Eclipse Lame L1 0:00:00 14.3 - 32, 45 (Avg:45)
40 Gary Thomas Nyora Mikaa Widthdrawn L1 0:00:00 - - 35, 49 (Avg:49)
Middleweight
24 Debbie Pevy Burren-Dah Walter 1 (BC) 5:57:00 14.1, 12.8 13.45 32, 32, 42 (Avg:37)
22 Nicole Smith Skittles 2 6:01:00 13.8, 12.7 13.30 36, 47, 55 (Avg:51)
8 Peter Kelly Ramalea Laila 3 7:15:00 12.4, 9.8 11.03 32, 40, 50 (Avg:45)
2 Tracy Broadbent Swamp Rock 4 7:27:00 12.5, 9.3 10.74 36, 40, 55 (Avg:47)
52 Barbara Kurcz Macquarie Park Dassan 4 7:27:00 11.3, 10.2 10.74 35, 36, 47 (Avg:41)
53 Andrew Mackinder Littlebanks Dizzy 6 7:29:00 11.3, 10.1 10.69 30, 39, 46 (Avg:42)
4 Jennifer Gilbertson Coolahlee Park Saraba 7 8:12:00 10.7, 8.9 9.76 35, 40, 44 (Avg:42)
14 Ava Pellizzari Zzariava Valentino 7 8:12:00 10.7, 8.9 9.76 37, 38, 44 (Avg:41)
39 Codey Bergsma Joda Kitatra Angel's Gift 9 8:13:00 10.7, 8.8 9.74 47, 55, 48 (Avg:51)
58 Cheryl Strachan Kintamani Sapphire 10 8:16:00 10.7, 8.7 9.68 28, 32, 40 (Avg:36)
19 Peter Bice Georgie Girl 11 8:59:00 10.8, 7.5 8.91 33, 43, 45 (Avg:44)
41 Jackie Tattam Image of Gold 11 8:59:00 9.1, 8.6 8.91 37, 44, 51 (Avg:47)
13 Karen Rhodes Stratfield Ghayth 13 9:02:00 10.4, 7.6 8.86 28, 40, 47 (Avg:43)
54 Michaela Araldi Girilambone Amahl 14 9:15:00 9.3, 8.0 8.65 39, 48, 52 (Avg:50)
7 Alex Baczocha Ralvon Secret 14 9:15:00 10.6, 7.2 8.65 32, 39, 42 (Avg:40)
48 Ruth Van der Wegen Aloha Aktar 16 9:29:00 9.2, 7.7 8.44 30, 32, 36 (Avg:34)
31 Jennifer Caslick A'Landell Charlie 17 9:34:00 8.6, 8.0 8.36 30, 38, 47 (Avg:42)
34 Annette Gifford Serenity Bey 18 9:35:00 10.2, 7.0 8.35 39, 41, 52 (Avg:46)
9 Sonya Ruprecht Alexville Mariah 19 10:03:00 8.3, 7.5 7.96 35, 38, 48 (Avg:43)
30 Margaret Boland Rosebrae Cameo 20 10:21:00 8.3, 7.1 7.73 34, 48, 50 (Avg:49)
47 Johanne Gardiner Coolinda Park Xzinda-Ella 20 10:21:00 8.3, 7.1 7.73 39, 43, 40 (Avg:41)
10 Monica Majerowski Valinor Park Sakim 20 10:21:00 8.3, 7.1 7.73 34, 39, 48 (Avg:43)
20 Renee Kirk Harmere Kashir Lame L2 0:00:00 8.3, 7.1 - 38, 43, 46 (Avg:44)
37 Melanie Anderson Ausden Kon Tiki Widthdrawn L1 0:00:00 - - 36, 43 (Avg:43)
28 Fiona Coddington Wanstead Silver Flyer Widthdrawn L1 0:00:00 - - 43, 52 (Avg:52)
32 Madeline Cotton A'Landell Sampson Widthdrawn L1 0:00:00 - - 33, 42 (Avg:42)
Lightweight
5 Anne Hills Evening Star 1 (BC) 7:15:00 12.5, 9.8 11.03 39, 29, 40 (Avg:34)
42 Ros Ryan Rainbows Reach Scout 2 9:01:00 9.4, 8.3 8.87 30, 33, 35 (Avg:34)
3 Sue Todd Shalacey Bear 3 9:27:00 9.7, 7.4 8.47 38, 47, 53 (Avg:50)
11 Emma Broome Raymar Aisha 4 9:41:00 9.7, 7.1 8.26 45, 48, 51 (Avg:49)
56 Jade Hodson Rush Creek Gift Heart Rate L2 0:00:00 7.9, 7.2 - 38, 50, 64 (Avg:57)
38 Antonia Somerville Kiljora Park Amir Illusion Lame L2 0:00:00 11.5, 9.9 - 47, 40, 55 (Avg:47)
16 Elaine Kirby Excessabelle Widthdrawn L1 0:00:00 - - 31, 37 (Avg:37)
49 Shannen Thorsby Aloha Aktar Widthdrawn P/R 0:00:00 - - 30
Junior
51 Georgia Curry Macquarie Park Banjo 1 (BC) 7:33:00 11.3, 9.9 10.60 34, 34, 55 (Avg:44)
17 Josephine Jansen Windaroo Devina Glamour 2 8:12:00 10.8, 8.8 9.76 46, 40, 52 (Avg:46)
35 Adele Gifford Porcelyn Bey 3 9:02:00 10.2, 7.7 8.86 37, 55, 52 (Avg:53)
29 Cybele Coddington Sharahd Zh'Laan 4 9:27:00 9.7, 7.4 8.47 46, 43, 56 (Avg:49)
57 Mia Bodewes Booramby Jacob 5 10:33:00 7.9, 7.2 7.58 38, 36, 38 (Avg:37)
18 Victoria Bice The Byzantine Diamonds Widthdrawn L2 0:00:00 - - 42, 40, 40 (Avg:40)